Time;durP1;ratioP1;P1;durP2;ratioP2;P2;SDS_P1;SDS_P2;PMS_P1;PMS_P2;Temp;Humidity;BMP_temperature;BMP_pressure;BME280_temperature;BME280_humidity;BME280_pressure;Samples;Min_cycle;Max_cycle;Signal;HPM_P1;HPM_P2
2023/07/13 00:01:15;;;;;;;0.60;0.60;;;22.80;66.40;;;;;;5046114;28;20048;-76
2023/07/13 00:03:40;;;;;;;0.50;0.50;;;22.80;66.50;;;;;;5013884;28;20120;-76
2023/07/13 00:06:06;;;;;;;1.00;0.90;;;22.80;66.50;;;;;;5049425;28;20554;-76
2023/07/13 00:08:32;;;;;;;1.33;0.70;;;22.80;66.60;;;;;;5050496;28;20057;-76
2023/07/13 00:10:59;;;;;;;0.80;0.77;;;22.80;66.70;;;;;;5037581;28;20115;-76
2023/07/13 00:13:24;;;;;;;1.25;0.85;;;22.80;66.90;;;;;;5059670;28;20063;-76
2023/07/13 00:15:50;;;;;;;0.80;0.60;;;22.80;67.00;;;;;;5045104;28;20049;-76
2023/07/13 00:18:16;;;;;;;0.52;0.50;;;22.80;67.20;;;;;;5045250;28;20033;-76
2023/07/13 00:20:41;;;;;;;1.00;0.60;;;22.80;67.10;;;;;;5056594;28;20043;-76
2023/07/13 00:23:07;;;;;;;0.73;0.73;;;22.80;67.10;;;;;;5031798;28;20121;-76
2023/07/13 00:25:33;;;;;;;0.60;0.60;;;22.80;67.40;;;;;;5034515;28;20044;-76
2023/07/13 00:27:58;;;;;;;1.00;0.60;;;22.80;67.30;;;;;;5049577;28;20071;-76
2023/07/13 00:30:25;;;;;;;0.68;0.50;;;22.80;67.40;;;;;;5048194;28;20499;-76
2023/07/13 00:32:51;;;;;;;0.90;0.82;;;22.80;67.40;;;;;;5051857;28;20044;-76
2023/07/13 00:35:16;;;;;;;1.67;0.50;;;22.80;67.50;;;;;;5029751;28;20049;-75
2023/07/13 00:37:42;;;;;;;0.50;0.50;;;22.80;67.50;;;;;;5039353;28;20191;-76
2023/07/13 00:40:09;;;;;;;0.60;0.60;;;22.80;68.20;;;;;;5045881;28;20124;-75
2023/07/13 00:42:35;;;;;;;1.70;0.70;;;22.80;67.70;;;;;;5032912;28;20063;-76
2023/07/13 00:45:04;;;;;;;0.60;0.60;;;22.70;67.30;;;;;;5024769;28;20503;-76
2023/07/13 00:47:29;;;;;;;0.60;0.40;;;22.70;67.40;;;;;;5029048;28;20060;-76
2023/07/13 00:49:55;;;;;;;0.50;0.50;;;22.70;67.30;;;;;;5049383;28;20045;-75
2023/07/13 00:52:20;;;;;;;0.60;0.45;;;22.70;67.40;;;;;;5035565;28;20053;-76
2023/07/13 00:54:46;;;;;;;0.55;0.55;;;22.70;67.30;;;;;;5014045;28;20566;-75
2023/07/13 00:57:19;;;;;;;0.63;0.63;;;22.70;67.60;;;;;;5032201;28;20457;-76
2023/07/13 00:59:47;;;;;;;0.50;0.50;;;22.70;67.50;;;;;;5039241;28;20431;-76
2023/07/13 01:02:13;;;;;;;0.63;0.63;;;22.70;67.60;;;;;;5059240;28;20057;-76
2023/07/13 01:04:39;;;;;;;2.28;0.55;;;22.70;67.60;;;;;;5048136;28;20182;-76
2023/07/13 01:07:05;;;;;;;0.50;0.50;;;22.70;67.30;;;;;;5067099;28;20049;-76
2023/07/13 01:09:30;;;;;;;0.75;0.60;;;22.70;68.00;;;;;;5047737;28;20052;-75
2023/07/13 01:11:56;;;;;;;2.00;0.55;;;22.80;67.90;;;;;;5057114;28;20494;-76
2023/07/13 01:14:21;;;;;;;1.58;0.80;;;22.70;68.50;;;;;;5026244;28;20057;-76
2023/07/13 01:16:47;;;;;;;0.52;0.52;;;22.70;68.50;;;;;;5040826;28;20056;-76
2023/07/13 01:19:19;;;;;;;0.40;0.40;;;22.70;68.10;;;;;;5031726;28;20041;-76
2023/07/13 01:21:44;;;;;;;0.50;0.50;;;22.70;67.80;;;;;;5024072;28;20055;-76
2023/07/13 01:24:10;;;;;;;0.50;0.40;;;22.80;67.60;;;;;;5026099;28;20049;-76
2023/07/13 01:26:35;;;;;;;0.68;0.43;;;22.70;67.60;;;;;;5043963;28;20120;-76
2023/07/13 01:29:01;;;;;;;0.70;0.50;;;22.70;67.50;;;;;;5039915;28;20053;-77
2023/07/13 01:31:27;;;;;;;1.10;0.52;;;22.70;67.40;;;;;;5041980;28;20048;-76
2023/07/13 01:33:52;;;;;;;0.50;0.50;;;22.70;67.60;;;;;;5011010;28;20037;-76
2023/07/13 01:36:21;;;;;;;1.00;0.70;;;22.70;67.40;;;;;;5008594;28;20041;-75
2023/07/13 01:38:46;;;;;;;0.90;0.75;;;22.70;67.50;;;;;;5041533;28;20049;-76
2023/07/13 01:41:12;;;;;;;0.50;0.50;;;22.70;67.60;;;;;;5044934;28;20411;-76
2023/07/13 01:43:37;;;;;;;0.57;0.47;;;22.70;67.40;;;;;;5044933;28;20052;-76
2023/07/13 01:46:03;;;;;;;0.88;0.73;;;22.70;67.60;;;;;;5026949;28;20044;-76
2023/07/13 01:48:28;;;;;;;0.90;0.65;;;22.70;67.60;;;;;;5027034;28;20048;-76
2023/07/13 01:50:54;;;;;;;0.85;0.50;;;22.70;67.80;;;;;;5042948;28;20044;-76
2023/07/13 01:53:19;;;;;;;0.70;0.43;;;22.70;67.80;;;;;;5042559;28;20441;-76
2023/07/13 01:55:45;;;;;;;0.90;0.47;;;22.70;67.80;;;;;;5024700;28;20072;-75
2023/07/13 01:58:11;;;;;;;0.50;0.50;;;22.70;67.70;;;;;;5044818;28;20410;-76
2023/07/13 02:00:36;;;;;;;0.50;0.50;;;22.70;67.70;;;;;;5044313;28;20144;-75
2023/07/13 02:03:02;;;;;;;0.40;0.40;;;22.70;68.00;;;;;;5026647;28;20045;-76
2023/07/13 02:05:27;;;;;;;0.88;0.70;;;22.70;67.70;;;;;;5026275;28;20041;-76
2023/07/13 02:07:53;;;;;;;0.77;0.60;;;22.70;68.10;;;;;;5043712;28;20135;-76
2023/07/13 02:10:18;;;;;;;0.77;0.57;;;22.70;67.80;;;;;;5043335;28;20047;-76
2023/07/13 02:12:44;;;;;;;0.43;0.43;;;22.70;68.20;;;;;;5025310;28;20076;-76
2023/07/13 02:15:10;;;;;;;1.20;0.40;;;22.70;67.90;;;;;;5024506;28;20053;-76
2023/07/13 02:17:36;;;;;;;0.70;0.63;;;22.60;67.90;;;;;;5040816;28;20140;-75
2023/07/13 02:20:02;;;;;;;1.15;0.77;;;22.70;67.60;;;;;;5025334;28;20048;-76
2023/07/13 02:22:28;;;;;;;0.50;0.50;;;22.60;67.60;;;;;;5040497;28;20080;-76
2023/07/13 02:24:53;;;;;;;1.40;0.70;;;22.70;67.70;;;;;;5033835;28;20514;-76
2023/07/13 02:27:19;;;;;;;0.50;0.50;;;22.70;67.60;;;;;;5056998;28;20076;-76
2023/07/13 02:29:44;;;;;;;0.50;0.50;;;22.60;67.60;;;;;;5053245;28;20708;-76
2023/07/13 02:32:10;;;;;;;0.50;0.50;;;22.60;67.70;;;;;;5047888;28;20041;-76
2023/07/13 02:34:35;;;;;;;0.52;0.50;;;22.60;67.60;;;;;;5049542;28;20040;-75
2023/07/13 02:37:01;;;;;;;0.80;0.40;;;22.70;67.50;;;;;;5055333;28;20040;-75
2023/07/13 02:39:27;;;;;;;0.90;0.40;;;22.70;67.60;;;;;;5055112;28;20522;-75
2023/07/13 02:41:52;;;;;;;0.60;0.50;;;22.70;67.30;;;;;;5048972;28;20591;-75
2023/07/13 02:44:18;;;;;;;0.40;0.40;;;22.70;67.50;;;;;;5036475;28;20041;-75
2023/07/13 02:46:43;;;;;;;0.40;0.40;;;22.60;68.50;;;;;;5047139;28;20068;-75
2023/07/13 02:49:09;;;;;;;0.47;0.40;;;22.60;68.60;;;;;;5050195;28;20628;-75
2023/07/13 02:51:34;;;;;;;0.65;0.45;;;22.60;67.70;;;;;;5049838;28;20045;-75
2023/07/13 02:54:01;;;;;;;0.85;0.60;;;22.60;67.60;;;;;;5052625;28;20502;-75
2023/07/13 02:56:27;;;;;;;0.40;0.40;;;22.60;67.50;;;;;;5047149;28;20038;-75
2023/07/13 02:58:54;;;;;;;0.77;0.40;;;22.60;67.50;;;;;;5044572;28;20495;-75
2023/07/13 03:01:20;;;;;;;0.73;0.52;;;22.60;67.70;;;;;;5061984;28;20517;-75
2023/07/13 03:03:46;;;;;;;0.75;0.52;;;22.60;67.60;;;;;;5047294;28;20106;-75
2023/07/13 03:06:12;;;;;;;0.47;0.40;;;22.60;67.60;;;;;;5032012;28;20424;-75
2023/07/13 03:08:37;;;;;;;0.55;0.50;;;22.60;67.80;;;;;;5046762;28;20075;-75
2023/07/13 03:11:04;;;;;;;0.63;0.45;;;22.60;68.00;;;;;;5051964;28;20464;-75
2023/07/13 03:13:30;;;;;;;0.40;0.32;;;22.60;68.50;;;;;;5068595;28;20493;-76
2023/07/13 03:15:56;;;;;;;0.60;0.40;;;22.60;67.60;;;;;;5031718;28;20047;-75
2023/07/13 03:18:21;;;;;;;0.43;0.35;;;22.60;67.50;;;;;;5069106;28;20033;-75
2023/07/13 03:20:50;;;;;;;0.55;0.35;;;22.60;67.50;;;;;;5054936;28;20045;-75
2023/07/13 03:23:16;;;;;;;0.30;0.30;;;22.60;67.70;;;;;;5030337;28;20053;-75
2023/07/13 03:25:42;;;;;;;0.63;0.47;;;22.60;67.50;;;;;;5035544;28;20082;-75
2023/07/13 03:28:07;;;;;;;0.60;0.50;;;22.60;67.50;;;;;;5018511;28;20029;-75
2023/07/13 03:30:33;;;;;;;0.77;0.40;;;22.60;67.50;;;;;;5058202;28;20124;-75
2023/07/13 03:32:58;;;;;;;0.40;0.30;;;22.60;67.40;;;;;;5046476;28;20036;-75
2023/07/13 03:35:24;;;;;;;0.55;0.30;;;22.60;67.40;;;;;;5031795;28;20124;-75
2023/07/13 03:37:51;;;;;;;0.40;0.40;;;22.60;67.50;;;;;;5054344;28;20045;-75
2023/07/13 03:40:16;;;;;;;0.30;0.30;;;22.60;67.50;;;;;;5044193;28;20064;-76
2023/07/13 03:42:42;;;;;;;0.43;0.30;;;22.60;67.40;;;;;;5030195;28;20033;-75
2023/07/13 03:45:08;;;;;;;0.35;0.35;;;22.60;67.60;;;;;;5052708;28;20495;-75
2023/07/13 03:47:33;;;;;;;0.60;0.60;;;22.60;67.60;;;;;;5032032;28;20369;-75
2023/07/13 03:49:59;;;;;;;0.50;0.50;;;22.60;67.40;;;;;;5032424;28;20103;-75
2023/07/13 03:52:24;;;;;;;0.80;0.50;;;22.60;67.40;;;;;;5033698;28;20040;-75
2023/07/13 03:54:50;;;;;;;0.35;0.35;;;22.60;67.60;;;;;;5052031;28;20049;-75
2023/07/13 03:57:16;;;;;;;0.30;0.30;;;22.60;67.70;;;;;;5044993;28;20569;-76
2023/07/13 03:59:41;;;;;;;0.77;0.60;;;22.60;67.70;;;;;;5064973;28;20043;-75
2023/07/13 04:02:07;;;;;;;0.45;0.40;;;22.60;67.40;;;;;;5057842;28;20529;-76
2023/07/13 04:04:32;;;;;;;0.40;0.32;;;22.60;67.40;;;;;;5041425;28;20414;-76
2023/07/13 04:06:58;;;;;;;0.50;0.50;;;22.60;67.60;;;;;;5035808;28;20450;-75
2023/07/13 04:09:24;;;;;;;0.57;0.40;;;22.60;67.80;;;;;;5023346;28;20053;-76
2023/07/13 04:11:50;;;;;;;0.55;0.28;;;22.60;67.60;;;;;;5011727;28;20040;-75
2023/07/13 04:14:15;;;;;;;0.63;0.43;;;22.60;68.40;;;;;;5047142;28;20041;-76
2023/07/13 04:16:41;;;;;;;0.60;0.52;;;22.60;67.70;;;;;;5055077;28;20546;-75
2023/07/13 04:19:08;;;;;;;0.45;0.30;;;22.60;67.80;;;;;;5058324;28;20413;-75
2023/07/13 04:21:34;;;;;;;0.75;0.52;;;22.60;67.70;;;;;;5040506;28;20142;-75
2023/07/13 04:24:00;;;;;;;0.50;0.50;;;22.60;67.90;;;;;;5056331;28;20060;-75
2023/07/13 04:26:25;;;;;;;0.50;0.50;;;22.60;67.80;;;;;;5070466;28;20037;-75
2023/07/13 04:28:51;;;;;;;0.73;0.52;;;22.60;67.80;;;;;;5050552;28;20050;-75
2023/07/13 04:31:17;;;;;;;1.30;0.82;;;22.60;68.10;;;;;;5058448;28;20045;-76
2023/07/13 04:33:43;;;;;;;0.57;0.47;;;22.60;68.00;;;;;;5054765;28;20033;-75
2023/07/13 04:36:09;;;;;;;0.85;0.50;;;22.60;68.40;;;;;;5053661;28;20124;-75
2023/07/13 04:38:35;;;;;;;1.15;1.05;;;22.60;68.30;;;;;;5046785;28;20116;-75
2023/07/13 04:41:01;;;;;;;2.90;0.80;;;22.60;68.30;;;;;;5051996;28;20136;-75
2023/07/13 04:43:27;;;;;;;1.20;0.77;;;22.60;68.20;;;;;;5049246;28;20065;-75
2023/07/13 04:45:53;;;;;;;1.73;1.02;;;22.60;68.00;;;;;;5016046;28;20173;-75
2023/07/13 04:48:19;;;;;;;0.90;0.70;;;22.60;68.10;;;;;;5042808;28;20047;-75
2023/07/13 04:50:45;;;;;;;0.60;0.50;;;22.60;68.00;;;;;;5047368;28;20036;-75
2023/07/13 04:53:11;;;;;;;0.68;0.50;;;22.60;68.90;;;;;;5035566;28;20041;-75
2023/07/13 04:55:37;;;;;;;1.23;0.40;;;22.60;68.00;;;;;;5036698;28;20421;-75
2023/07/13 04:58:02;;;;;;;0.50;0.38;;;22.60;68.00;;;;;;5057784;28;20029;-75
2023/07/13 05:00:28;;;;;;;0.70;0.40;;;22.60;68.10;;;;;;5054642;28;20094;-76
2023/07/13 05:02:55;;;;;;;0.68;0.47;;;22.60;68.10;;;;;;5052978;28;20128;-75
2023/07/13 05:05:21;;;;;;;2.80;1.25;;;22.60;67.90;;;;;;5038859;28;20363;-75
2023/07/13 05:07:46;;;;;;;0.70;0.43;;;22.60;68.10;;;;;;5035988;28;20049;-75
2023/07/13 05:10:12;;;;;;;0.60;0.50;;;22.60;67.90;;;;;;5053920;28;20110;-75
2023/07/13 05:12:37;;;;;;;0.70;0.52;;;22.60;68.00;;;;;;5051811;28;20095;-75
2023/07/13 05:15:03;;;;;;;1.23;0.50;;;22.60;68.10;;;;;;5030879;28;20064;-75
2023/07/13 05:17:29;;;;;;;0.45;0.43;;;22.60;68.20;;;;;;5051264;28;20522;-75
2023/07/13 05:19:54;;;;;;;1.08;0.68;;;22.60;67.90;;;;;;5017013;28;20062;-75
2023/07/13 05:22:20;;;;;;;0.40;0.40;;;22.60;67.80;;;;;;5053627;28;20047;-76
2023/07/13 05:24:45;;;;;;;0.60;0.50;;;22.60;67.90;;;;;;5034229;28;20037;-75
2023/07/13 05:27:11;;;;;;;0.43;0.43;;;22.60;67.80;;;;;;5030538;28;20137;-75
2023/07/13 05:29:36;;;;;;;0.52;0.43;;;22.60;68.10;;;;;;5027617;28;20062;-76
2023/07/13 05:32:03;;;;;;;0.52;0.43;;;22.60;68.00;;;;;;5032872;28;20419;-75
2023/07/13 05:34:29;;;;;;;0.47;0.40;;;22.60;68.20;;;;;;5027073;28;20044;-75
2023/07/13 05:36:54;;;;;;;2.53;0.55;;;22.60;68.00;;;;;;5034391;28;20053;-75
2023/07/13 05:39:20;;;;;;;0.65;0.65;;;22.60;68.00;;;;;;5028270;28;20040;-76
2023/07/13 05:41:45;;;;;;;0.60;0.60;;;22.60;68.10;;;;;;5033128;28;20428;-75
2023/07/13 05:44:11;;;;;;;0.50;0.50;;;22.60;68.10;;;;;;5044208;28;20135;-75
2023/07/13 05:46:37;;;;;;;0.60;0.60;;;22.60;68.20;;;;;;5068022;28;20083;-76
2023/07/13 05:49:03;;;;;;;1.10;0.95;;;22.60;67.40;;;;;;5024040;28;20161;-76
2023/07/13 05:51:28;;;;;;;5.60;0.90;;;22.40;65.00;;;;;;5020134;28;20060;-76
2023/07/13 05:53:54;;;;;;;2.72;1.10;;;21.60;66.70;;;;;;5025291;28;20049;-75
2023/07/13 05:56:20;;;;;;;3.03;1.27;;;21.10;68.60;;;;;;4994606;28;20038;-75
2023/07/13 05:58:45;;;;;;;2.60;1.40;;;20.80;69.40;;;;;;5050056;28;20050;-75
2023/07/13 06:01:12;;;;;;;1.88;1.02;;;20.50;70.60;;;;;;5032089;28;20069;-75
2023/07/13 06:03:38;;;;;;;2.35;1.00;;;20.50;70.80;;;;;;5030703;28;20399;-75
2023/07/13 06:06:04;;;;;;;3.33;1.35;;;20.40;72.40;;;;;;5012968;28;20034;-76
2023/07/13 06:08:30;;;;;;;3.08;1.55;;;20.30;71.80;;;;;;5055311;28;20496;-75
2023/07/13 06:11:04;;;;;;;3.55;1.65;;;20.30;72.10;;;;;;5034743;28;20081;-76
2023/07/13 06:13:30;;;;;;;5.63;1.10;;;20.30;71.70;;;;;;5046316;28;20041;-75
2023/07/13 06:15:55;;;;;;;2.90;1.55;;;20.30;71.90;;;;;;5033781;28;20045;-76
2023/07/13 06:18:21;;;;;;;1.75;1.40;;;20.20;72.00;;;;;;4679309;28;10000308;-75
2023/07/13 06:20:47;;;;;;;3.05;1.23;;;20.10;72.70;;;;;;5058836;28;20128;-75
2023/07/13 06:23:12;;;;;;;2.85;1.13;;;20.10;72.60;;;;;;5058058;28;20042;-75
2023/07/13 06:25:38;;;;;;;4.18;1.45;;;20.10;72.80;;;;;;5028173;28;20053;-75
2023/07/13 06:28:03;;;;;;;3.13;1.10;;;20.10;72.60;;;;;;5024367;28;20212;-75
2023/07/13 06:30:29;;;;;;;2.67;1.25;;;20.10;72.70;;;;;;5043471;28;20587;-75
2023/07/13 06:32:54;;;;;;;2.28;1.10;;;20.10;73.70;;;;;;5027605;28;20506;-75
2023/07/13 06:35:20;;;;;;;2.05;1.30;;;20.10;72.90;;;;;;5023635;28;20291;-76
2023/07/13 06:37:47;;;;;;;4.30;1.70;;;20.10;72.90;;;;;;5045149;28;20104;-75
2023/07/13 06:40:12;;;;;;;5.05;1.52;;;20.00;73.00;;;;;;5033516;28;20037;-75
2023/07/13 06:42:38;;;;;;;2.53;1.25;;;20.00;73.60;;;;;;5022450;28;20106;-76
2023/07/13 06:45:04;;;;;;;2.10;1.60;;;20.00;73.60;;;;;;5029145;28;20037;-77
2023/07/13 06:47:30;;;;;;;4.43;1.38;;;20.00;73.60;;;;;;5024595;28;20041;-76
2023/07/13 06:49:55;;;;;;;2.75;1.38;;;20.00;73.70;;;;;;5026240;28;20033;-75
2023/07/13 06:52:21;;;;;;;4.50;1.85;;;20.00;73.80;;;;;;5021889;28;20483;-76
2023/07/13 06:54:46;;;;;;;3.72;1.52;;;20.00;73.80;;;;;;5057901;28;20052;-75
2023/07/13 06:57:12;;;;;;;3.58;1.73;;;20.00;73.80;;;;;;5027247;28;20048;-75
2023/07/13 06:59:38;;;;;;;2.33;1.30;;;20.00;73.80;;;;;;5027610;28;20045;-75
2023/07/13 07:02:03;;;;;;;3.15;1.20;;;20.00;73.90;;;;;;5023608;28;20049;-76
2023/07/13 07:04:29;;;;;;;1.63;1.08;;;20.00;73.90;;;;;;5045603;28;20045;-76
2023/07/13 07:06:55;;;;;;;1.77;1.20;;;20.20;74.90;;;;;;5025395;28;20420;-76
2023/07/13 07:09:20;;;;;;;3.60;1.00;;;20.40;73.60;;;;;;5031060;28;20041;-77
2023/07/13 07:11:46;;;;;;;2.35;1.00;;;20.70;73.40;;;;;;5028196;28;20498;-77
2023/07/13 07:14:11;;;;;;;2.22;1.00;;;20.80;72.80;;;;;;5048661;28;20033;-77
2023/07/13 07:16:37;;;;;;;2.30;1.10;;;21.00;72.20;;;;;;5053224;28;20048;-76
2023/07/13 07:19:02;;;;;;;1.92;1.00;;;21.10;71.90;;;;;;5052721;28;20498;-77
2023/07/13 07:21:28;;;;;;;2.25;1.02;;;21.20;71.80;;;;;;5050927;28;20477;-77
2023/07/13 07:23:53;;;;;;;1.45;0.95;;;21.20;71.70;;;;;;5050926;28;20051;-77
2023/07/13 07:26:19;;;;;;;1.52;0.82;;;21.30;71.60;;;;;;5049498;28;20045;-76
2023/07/13 07:28:45;;;;;;;1.63;1.08;;;21.30;71.50;;;;;;5036475;28;20057;-76
2023/07/13 07:31:10;;;;;;;1.42;0.95;;;21.30;71.30;;;;;;5053909;28;20127;-77
2023/07/13 07:33:36;;;;;;;1.70;0.82;;;21.40;71.30;;;;;;5030752;28;20043;-76
2023/07/13 07:36:02;;;;;;;2.10;1.08;;;21.40;72.00;;;;;;5045174;28;20051;-76
2023/07/13 07:38:27;;;;;;;1.88;1.30;;;21.40;71.20;;;;;;5046626;28;20045;-77
2023/07/13 07:40:53;;;;;;;1.77;0.80;;;21.50;71.30;;;;;;5045072;28;20412;-77
2023/07/13 07:43:19;;;;;;;1.65;0.93;;;21.50;71.30;;;;;;5035631;28;20042;-77
2023/07/13 07:45:44;;;;;;;2.90;1.05;;;21.50;71.30;;;;;;5026402;28;20044;-77
2023/07/13 07:48:10;;;;;;;1.42;0.90;;;21.50;71.30;;;;;;5031445;28;20394;-77
2023/07/13 07:50:36;;;;;;;1.77;1.15;;;21.50;71.10;;;;;;5055212;28;20109;-77
2023/07/13 07:53:02;;;;;;;1.92;1.20;;;21.60;71.10;;;;;;5030426;28;20077;-77
2023/07/13 07:55:28;;;;;;;1.27;1.10;;;21.60;71.20;;;;;;5050609;28;20068;-77
2023/07/13 07:57:54;;;;;;;1.73;0.98;;;21.60;71.20;;;;;;5058582;28;20045;-77
2023/07/13 08:00:20;;;;;;;1.40;0.90;;;21.60;71.30;;;;;;5026784;28;20045;-76
2023/07/13 08:02:45;;;;;;;1.00;0.85;;;21.60;71.30;;;;;;5064458;28;20486;-76
2023/07/13 08:05:11;;;;;;;2.80;0.98;;;21.60;71.30;;;;;;5049004;28;20407;-77
2023/07/13 08:07:37;;;;;;;1.83;1.17;;;21.70;71.50;;;;;;5064461;28;20522;-77
2023/07/13 08:10:04;;;;;;;1.35;1.00;;;21.70;71.40;;;;;;5066274;28;20124;-76
2023/07/13 08:12:29;;;;;;;1.15;0.80;;;21.70;71.40;;;;;;5029341;28;20045;-76
2023/07/13 08:14:57;;;;;;;1.13;0.80;;;21.70;71.50;;;;;;5034706;28;20110;-76
2023/07/13 08:17:23;;;;;;;1.33;0.80;;;21.70;71.50;;;;;;5065583;28;20787;-76
2023/07/13 08:19:49;;;;;;;1.00;0.70;;;21.70;71.50;;;;;;5049593;28;20046;-76
2023/07/13 08:22:15;;;;;;;0.90;0.90;;;21.80;71.50;;;;;;5051651;28;20086;-76
2023/07/13 08:24:42;;;;;;;0.93;0.80;;;21.80;71.50;;;;;;5023150;28;20554;-76
2023/07/13 08:27:08;;;;;;;1.02;0.93;;;21.80;72.30;;;;;;5051004;28;20037;-76
2023/07/13 08:29:33;;;;;;;2.30;1.00;;;21.80;71.60;;;;;;5015459;28;20404;-76
2023/07/13 08:31:59;;;;;;;1.98;0.63;;;21.80;71.50;;;;;;5048197;28;20040;-76
2023/07/13 08:34:24;;;;;;;1.00;0.65;;;21.80;71.50;;;;;;5033527;28;20571;-76
2023/07/13 08:36:50;;;;;;;1.85;0.80;;;21.90;71.50;;;;;;5053862;28;20743;-76
2023/07/13 08:39:15;;;;;;;1.17;0.60;;;21.90;71.60;;;;;;5033001;28;20386;-76
2023/07/13 08:41:41;;;;;;;1.23;0.70;;;21.90;71.50;;;;;;5049578;28;20380;-76
2023/07/13 08:44:16;;;;;;;1.10;0.95;;;21.90;71.60;;;;;;5039324;28;20041;-76
2023/07/13 08:46:41;;;;;;;0.80;0.70;;;21.90;71.60;;;;;;5047995;28;20052;-77
2023/07/13 08:49:17;;;;;;;1.17;0.70;;;21.90;71.40;;;;;;5067899;28;20045;-76
2023/07/13 08:51:48;;;;;;;1.33;0.70;;;21.90;71.20;;;;;;5034695;28;20047;-76
2023/07/13 08:54:26;;;;;;;0.80;0.70;;;22.00;71.40;;;;;;5027189;28;20580;-77
2023/07/13 08:56:52;;;;;;;0.85;0.77;;;22.00;71.50;;;;;;5039103;28;20155;-77
2023/07/13 08:59:20;;;;;;;0.60;0.60;;;21.90;71.50;;;;;;5031215;28;20069;-76
2023/07/13 09:01:58;;;;;;;0.75;0.65;;;22.00;72.60;;;;;;5067104;28;20048;-76
2023/07/13 09:04:30;;;;;;;0.68;0.60;;;22.00;71.90;;;;;;5026544;28;20041;-76
2023/07/13 09:07:06;;;;;;;0.70;0.70;;;22.00;72.20;;;;;;5058823;28;20057;-76
2023/07/13 09:09:55;;;;;;;0.98;0.70;;;22.10;72.50;;;;;;5050473;28;20128;-76
2023/07/13 09:12:40;;;;;;;0.70;0.70;;;22.10;72.50;;;;;;5022139;28;20044;-76
2023/07/13 09:15:06;;;;;;;1.40;0.85;;;22.10;72.40;;;;;;5058297;28;20133;-76
2023/07/13 09:18:00;;;;;;;0.80;0.80;;;22.10;72.60;;;;;;5034669;28;20563;-77
2023/07/13 09:20:55;;;;;;;;;;;22.20;72.50;;;;;;5001749;28;20037;-76
2023/07/13 09:23:22;;;;;;;0.60;0.52;;;22.20;72.20;;;;;;4987968;28;19961;-76
2023/07/13 09:25:54;;;;;;;0.60;0.50;;;22.30;72.30;;;;;;4968300;28;20050;-77
2023/07/13 09:28:28;;;;;;;1.08;0.70;;;22.20;72.30;;;;;;4982331;28;20124;-76
2023/07/13 09:31:04;;;;;;;0.77;0.55;;;22.20;72.00;;;;;;4987559;28;20125;-76
2023/07/13 09:33:31;;;;;;;1.05;0.98;;;22.30;72.10;;;;;;4974015;28;20618;-77
2023/07/13 09:35:58;;;;;;;0.95;0.77;;;22.30;71.90;;;;;;4975156;28;20272;-77
2023/07/13 09:38:25;;;;;;;0.88;0.68;;;22.30;72.20;;;;;;4961113;28;20038;-76
2023/07/13 09:41:22;;;;;;;0.68;0.68;;;22.30;71.90;;;;;;4958896;28;20071;-76
2023/07/13 09:44:10;;;;;;;0.82;0.63;;;22.30;71.80;;;;;;4978956;28;20042;-76
2023/07/13 09:46:36;;;;;;;0.95;0.60;;;22.30;71.80;;;;;;4975233;28;20091;-77
2023/07/13 09:49:01;;;;;;;1.55;0.60;;;22.30;71.80;;;;;;4995155;28;20053;-76
2023/07/13 09:51:27;;;;;;;0.65;0.60;;;22.30;71.80;;;;;;4962794;28;20066;-76
2023/07/13 09:53:54;;;;;;;0.70;0.50;;;22.30;71.80;;;;;;4941549;28;20057;-76
2023/07/13 09:56:23;;;;;;;0.75;0.47;;;22.30;71.70;;;;;;4989021;28;20042;-76
2023/07/13 09:58:49;;;;;;;0.60;0.60;;;22.30;71.80;;;;;;4991795;28;20042;-76
2023/07/13 10:01:15;;;;;;;0.60;0.60;;;22.30;71.90;;;;;;5034854;28;20605;-76
2023/07/13 10:03:51;;;;;;;0.90;0.50;;;22.30;72.10;;;;;;5056541;28;20470;-76
2023/07/13 10:06:18;;;;;;;0.60;0.60;;;22.30;71.90;;;;;;5057677;28;20033;-76
2023/07/13 10:08:47;;;;;;;0.50;0.50;;;22.30;71.50;;;;;;5031688;28;20132;-77
2023/07/13 10:11:22;;;;;;;0.80;0.80;;;22.30;71.50;;;;;;5031181;28;20124;-76
2023/07/13 10:13:55;;;;;;;0.93;0.75;;;22.30;71.50;;;;;;5037761;28;20049;-76
2023/07/13 10:16:21;;;;;;;0.80;0.80;;;22.40;71.50;;;;;;5034488;28;20071;-76
2023/07/13 10:18:52;;;;;;;0.60;0.60;;;22.40;71.40;;;;;;5036621;28;20334;-77
2023/07/13 10:21:20;;;;;;;0.70;0.70;;;22.40;71.50;;;;;;5036495;28;20040;-76
2023/07/13 10:23:49;;;;;;;2.67;0.50;;;22.40;71.40;;;;;;5028832;28;20447;-75
2023/07/13 10:26:40;;;;;;;1.75;0.57;;;22.40;70.90;;;;;;5043263;28;20049;-74
2023/07/13 10:29:08;;;;;;;2.38;0.65;;;22.50;70.90;;;;;;5036666;28;20037;-75
2023/07/13 10:31:40;;;;;;;0.60;0.60;;;22.50;71.00;;;;;;5020265;28;20050;-75
2023/07/13 10:34:13;;;;;;;1.10;1.00;;;22.50;70.80;;;;;;5045836;28;20056;-74
2023/07/13 10:36:46;;;;;;;1.65;1.55;;;22.50;71.30;;;;;;5044131;28;20036;-75
2023/07/13 10:39:22;;;;;;;2.80;2.50;;;22.60;72.00;;;;;;4688257;28;9999691;-75
2023/07/13 10:41:53;;;;;;;2.90;2.60;;;22.60;73.20;;;;;;5040134;28;20048;-75
2023/07/13 10:44:26;;;;;;;2.45;2.25;;;22.60;71.50;;;;;;5026332;28;20538;-75
2023/07/13 10:46:58;;;;;;;1.92;1.50;;;22.60;72.40;;;;;;5030640;28;20483;-76
2023/07/13 10:49:24;;;;;;;1.50;1.40;;;22.60;71.20;;;;;;5027223;28;20179;-75
2023/07/13 10:51:51;;;;;;;1.13;1.00;;;22.60;71.80;;;;;;5038607;28;20099;-76
2023/07/13 10:54:22;;;;;;;1.30;1.20;;;22.60;70.80;;;;;;5020267;28;20059;-75
2023/07/13 10:57:12;;;;;;;1.15;1.00;;;22.60;70.40;;;;;;5029583;28;20053;-75
2023/07/13 10:59:37;;;;;;;1.40;0.93;;;22.60;70.30;;;;;;5028389;28;20048;-75
2023/07/13 11:02:04;;;;;;;0.65;0.65;;;22.60;70.10;;;;;;5048010;28;20078;-75
2023/07/13 11:04:47;;;;;;;1.15;0.75;;;22.60;69.80;;;;;;5046621;28;20088;-75
2023/07/13 11:07:28;;;;;;;0.68;0.65;;;22.60;70.00;;;;;;5007447;28;20136;-75
2023/07/13 11:09:55;;;;;;;0.90;0.90;;;22.70;70.90;;;;;;5052465;28;20044;-75
2023/07/13 11:12:24;;;;;;;0.85;0.80;;;22.60;71.00;;;;;;5047427;28;20136;-75
2023/07/13 11:14:56;;;;;;;1.00;0.70;;;22.70;70.20;;;;;;5034745;28;20089;-75
2023/07/13 11:17:28;;;;;;;2.35;0.80;;;22.70;70.30;;;;;;5026750;28;20042;-75
2023/07/13 11:19:54;;;;;;;0.90;0.60;;;22.70;70.60;;;;;;5045940;28;20517;-75
2023/07/13 11:22:43;;;;;;;0.90;0.60;;;22.60;70.50;;;;;;5029513;28;20159;-75
2023/07/13 11:25:26;;;;;;;0.57;0.52;;;22.70;70.50;;;;;;5034196;28;20045;-76
2023/07/13 11:28:04;;;;;;;0.65;0.60;;;22.70;70.60;;;;;;5030283;28;20057;-75
2023/07/13 11:30:29;;;;;;;1.23;0.80;;;22.70;70.60;;;;;;5026655;28;20062;-84
2023/07/13 11:33:07;;;;;;;0.80;0.52;;;22.70;70.30;;;;;;5018814;28;20043;-83
2023/07/13 11:35:38;;;;;;;1.00;0.63;;;22.70;70.40;;;;;;5037584;28;20049;-84
2023/07/13 11:38:09;;;;;;;0.60;0.60;;;22.70;71.40;;;;;;5005581;28;20037;-82
2023/07/13 11:40:34;;;;;;;0.43;0.43;;;22.70;70.70;;;;;;5032178;28;20052;-82
2023/07/13 11:43:01;;;;;;;0.70;0.60;;;22.70;70.60;;;;;;5011026;28;20044;-82
2023/07/13 11:45:28;;;;;;;0.70;0.70;;;22.70;70.40;;;;;;5050535;28;20052;-80
2023/07/13 11:47:54;;;;;;;0.70;0.70;;;22.70;70.60;;;;;;5037148;28;20410;-84
2023/07/13 11:50:22;;;;;;;0.60;0.60;;;22.80;70.50;;;;;;5010590;28;20523;-80
2023/07/13 11:52:49;;;;;;;0.82;0.75;;;22.70;70.60;;;;;;5013884;28;20465;-81
2023/07/13 11:55:17;;;;;;;1.05;0.55;;;22.70;70.20;;;;;;5021672;28;20040;-84
2023/07/13 11:58:03;;;;;;;0.57;0.40;;;22.80;70.20;;;;;;5047682;28;20100;-84
2023/07/13 12:00:31;;;;;;;0.70;0.70;;;22.70;70.30;;;;;;5044208;28;20040;-81
2023/07/13 12:02:59;;;;;;;0.38;0.30;;;22.80;70.50;;;;;;5030219;28;20412;-82
2023/07/13 12:05:24;;;;;;;0.68;0.68;;;22.80;70.30;;;;;;5038523;28;20122;-84
2023/07/13 12:07:50;;;;;;;0.60;0.60;;;22.70;70.20;;;;;;5046126;28;20083;-80
2023/07/13 12:10:19;;;;;;;2.25;0.65;;;22.80;70.10;;;;;;5046665;28;20136;-82
2023/07/13 12:12:58;;;;;;;0.43;0.43;;;22.80;69.80;;;;;;5027633;28;20052;-84
2023/07/13 12:15:35;;;;;;;0.63;0.60;;;22.80;69.50;;;;;;5057523;28;20396;-82
2023/07/13 12:18:01;;;;;;;1.52;0.50;;;22.80;69.50;;;;;;5054923;28;20053;-85
2023/07/13 12:20:30;;;;;;;0.80;0.63;;;22.80;69.50;;;;;;5046447;28;20036;-87
2023/07/13 12:22:55;;;;;;;0.50;0.50;;;22.80;69.60;;;;;;5043476;28;20044;-85
2023/07/13 12:25:21;;;;;;;0.73;0.73;;;22.80;69.50;;;;;;5019820;28;20069;-85
2023/07/13 12:27:49;;;;;;;2.25;0.50;;;22.90;69.50;;;;;;5061859;28;20057;-88
2023/07/13 12:30:31;;;;;;;1.50;1.40;;;22.80;69.40;;;;;;5064421;28;20114;-81
2023/07/13 12:32:58;;;;;;;2.13;1.25;;;22.90;70.40;;;;;;5033899;28;20049;-79
2023/07/13 12:35:23;;;;;;;2.35;0.77;;;22.90;69.70;;;;;;5033828;28;20096;-82
2023/07/13 12:37:50;;;;;;;7.50;0.70;;;22.90;69.70;;;;;;5023973;28;20507;-82
2023/07/13 12:40:18;;;;;;;0.68;0.60;;;22.90;69.60;;;;;;5050578;28;20422;-82
2023/07/13 12:42:45;;;;;;;1.65;0.80;;;22.90;69.60;;;;;;5022026;28;20034;-82
2023/07/13 12:45:20;;;;;;;2.08;0.75;;;22.80;69.80;;;;;;5026788;28;20087;-83
2023/07/13 12:47:48;;;;;;;1.85;0.40;;;22.90;69.80;;;;;;5040849;28;20037;-80
2023/07/13 12:50:16;;;;;;;0.95;0.57;;;22.80;69.90;;;;;;5011262;28;20041;-81